UAE9CL OMDB-EDDM
Flight info
| Callsign | UAE9CL |
|---|---|
| Flight time | N/A |
| Altitude | 34000 |
| Route | KUTLI L519 ATUDO M318 GOLGU M550 RIBOT DCT MIGMA DCT ITRUX Y511 PMA Z712 WEJ L677 CVO L617 TANSA UL613 KOR DCT DIMIS DCT VRANA DCT NIVES DCT GORPA DCT RASTA DCT REDBU Q112 NAPSA |
| Aircraft | B77W/H-SDE1E2E3FGHIJ2J3J4J5M1RWXYZ/LB1D1 |
Departure
| Time | 2026-05-07 04:09 |
|---|---|
| Airport | Dubai International Airport (OMDB) |
Arrival
| Time | N/A |
|---|---|
| Airport | Munich Airport (EDDM) |
| Time | Latitude | Longitude | Altitude | Speed | Heading |
|---|---|---|---|---|---|
| 2026-05-07 02:57 | 25.25284 | 55.35574 | 26 ft | 0 kts | 211° |
| 2026-05-07 03:51 | 25.25297 | 55.35582 | 26 ft | 3 kts | 211° |
| 2026-05-07 03:51 | 25.25314 | 55.35594 | 28 ft | 3 kts | 211° |
| 2026-05-07 03:51 | 25.25331 | 55.35605 | 31 ft | 2 kts | 211° |
| 2026-05-07 03:52 | 25.25345 | 55.35616 | 31 ft | 3 kts | 227° |
| 2026-05-07 03:52 | 25.25355 | 55.35633 | 32 ft | 3 kts | 259° |
| 2026-05-07 03:52 | 25.25356 | 55.35654 | 32 ft | 3 kts | 290° |
| 2026-05-07 03:52 | 25.25347 | 55.35672 | 32 ft | 3 kts | 301° |
| 2026-05-07 03:53 | 25.25337 | 55.35692 | 32 ft | 3 kts | 301° |
| 2026-05-07 03:53 | 25.25333 | 55.35698 | 32 ft | 0 kts | 301° |
| 2026-05-07 03:56 | 25.25334 | 55.35696 | 26 ft | 1 kts | 301° |
| 2026-05-07 03:56 | 25.25342 | 55.35683 | 30 ft | 3 kts | 301° |
| 2026-05-07 03:56 | 25.25356 | 55.35657 | 29 ft | 5 kts | 301° |
| 2026-05-07 03:56 | 25.25374 | 55.35625 | 31 ft | 5 kts | 301° |
| 2026-05-07 03:57 | 25.25391 | 55.35593 | 29 ft | 5 kts | 302° |
| 2026-05-07 03:57 | 25.25409 | 55.35562 | 27 ft | 5 kts | 302° |
| 2026-05-07 03:57 | 25.25427 | 55.35530 | 29 ft | 5 kts | 302° |
| 2026-05-07 03:57 | 25.25441 | 55.35506 | 31 ft | 3 kts | 302° |
| 2026-05-07 03:58 | 25.25455 | 55.35480 | 29 ft | 6 kts | 302° |
| 2026-05-07 03:58 | 25.25485 | 55.35427 | 27 ft | 10 kts | 301° |
| 2026-05-07 03:58 | 25.25519 | 55.35365 | 30 ft | 10 kts | 302° |
| 2026-05-07 03:58 | 25.25554 | 55.35303 | 31 ft | 10 kts | 302° |
| 2026-05-07 03:59 | 25.25589 | 55.35241 | 30 ft | 10 kts | 302° |
| 2026-05-07 03:59 | 25.25624 | 55.35179 | 31 ft | 10 kts | 302° |
| 2026-05-07 03:59 | 25.25659 | 55.35117 | 29 ft | 9 kts | 302° |
| 2026-05-07 03:59 | 25.25690 | 55.35062 | 29 ft | 8 kts | 300° |
| 2026-05-07 04:00 | 25.25723 | 55.35009 | 30 ft | 8 kts | 327° |
| 2026-05-07 04:00 | 25.25780 | 55.35017 | 29 ft | 9 kts | 25° |
| 2026-05-07 04:00 | 25.25843 | 55.35057 | 29 ft | 12 kts | 31° |
| 2026-05-07 04:00 | 25.25915 | 55.35105 | 29 ft | 12 kts | 31° |
| 2026-05-07 04:01 | 25.25987 | 55.35153 | 29 ft | 12 kts | 31° |
| 2026-05-07 04:01 | 25.26059 | 55.35202 | 26 ft | 12 kts | 31° |
| 2026-05-07 04:01 | 25.26131 | 55.35250 | 27 ft | 12 kts | 31° |
| 2026-05-07 04:01 | 25.26203 | 55.35299 | 28 ft | 12 kts | 31° |
| 2026-05-07 04:02 | 25.26275 | 55.35347 | 29 ft | 12 kts | 31° |
| 2026-05-07 04:02 | 25.26347 | 55.35395 | 29 ft | 12 kts | 31° |
| 2026-05-07 04:02 | 25.26406 | 55.35435 | 27 ft | 9 kts | 31° |
| 2026-05-07 04:02 | 25.26428 | 55.35494 | 27 ft | 9 kts | 105° |
| 2026-05-07 04:03 | 25.26395 | 55.35559 | 27 ft | 11 kts | 121° |
| 2026-05-07 04:03 | 25.26350 | 55.35640 | 26 ft | 14 kts | 122° |
| 2026-05-07 04:03 | 25.26292 | 55.35742 | 26 ft | 17 kts | 122° |
| 2026-05-07 04:03 | 25.26224 | 55.35863 | 26 ft | 20 kts | 122° |
| 2026-05-07 04:04 | 25.26148 | 55.35999 | 26 ft | 22 kts | 122° |
| 2026-05-07 04:04 | 25.26063 | 55.36149 | 27 ft | 24 kts | 122° |
| 2026-05-07 04:04 | 25.25972 | 55.36311 | 27 ft | 26 kts | 122° |
| 2026-05-07 04:04 | 25.25876 | 55.36482 | 28 ft | 26 kts | 122° |
| 2026-05-07 04:05 | 25.25779 | 55.36654 | 27 ft | 26 kts | 122° |
| 2026-05-07 04:05 | 25.25683 | 55.36825 | 27 ft | 26 kts | 122° |
| 2026-05-07 04:05 | 25.25586 | 55.36997 | 27 ft | 26 kts | 122° |
| 2026-05-07 04:05 | 25.25489 | 55.37169 | 27 ft | 26 kts | 122° |
| 2026-05-07 04:06 | 25.25393 | 55.37341 | 28 ft | 26 kts | 122° |
| 2026-05-07 04:06 | 25.25296 | 55.37513 | 28 ft | 26 kts | 122° |
| 2026-05-07 04:06 | 25.25200 | 55.37684 | 28 ft | 26 kts | 122° |
| 2026-05-07 04:06 | 25.25104 | 55.37854 | 27 ft | 24 kts | 122° |
| 2026-05-07 04:07 | 25.25026 | 55.37993 | 27 ft | 19 kts | 122° |
| 2026-05-07 04:07 | 25.24971 | 55.38090 | 27 ft | 10 kts | 122° |
| 2026-05-07 04:07 | 25.24925 | 55.38122 | 27 ft | 8 kts | 184° |
| 2026-05-07 04:07 | 25.24873 | 55.38095 | 28 ft | 8 kts | 210° |
| 2026-05-07 04:08 | 25.24828 | 55.38065 | 30 ft | 7 kts | 213° |
| 2026-05-07 04:08 | 25.24817 | 55.38018 | 30 ft | 7 kts | 282° |
| 2026-05-07 04:08 | 25.24865 | 55.37921 | 30 ft | 30 kts | 301° |
| 2026-05-07 04:08 | 25.25103 | 55.37492 | 32 ft | 102 kts | 301° |
| 2026-05-07 04:09 | 25.25596 | 55.36603 | 30 ft | 167 kts | 301° |
| 2026-05-07 04:09 | 25.26271 | 55.35383 | 230 ft | 196 kts | 299° |
| 2026-05-07 04:09 | 25.26975 | 55.34096 | 897 ft | 196 kts | 299° |
| 2026-05-07 04:09 | 25.27689 | 55.32792 | 1405 ft | 205 kts | 298° |
| 2026-05-07 04:10 | 25.28460 | 55.31375 | 1673 ft | 224 kts | 297° |
| 2026-05-07 04:10 | 25.29181 | 55.29844 | 2083 ft | 227 kts | 279° |
| 2026-05-07 04:10 | 25.29068 | 55.28123 | 2486 ft | 228 kts | 245° |
| 2026-05-07 04:10 | 25.28372 | 55.26542 | 3004 ft | 230 kts | 243° |
| 2026-05-07 04:11 | 25.27667 | 55.24949 | 3610 ft | 231 kts | 244° |
| 2026-05-07 04:11 | 25.26975 | 55.23372 | 4182 ft | 234 kts | 245° |
| 2026-05-07 04:11 | 25.26496 | 55.22267 | 4488 ft | 242 kts | 245° |
| 2026-05-07 04:11 | 25.25747 | 55.20504 | 4717 ft | 260 kts | 246° |
| 2026-05-07 04:12 | 25.24972 | 55.18672 | 5247 ft | 269 kts | 246° |
| 2026-05-07 04:12 | 25.24148 | 55.16743 | 5571 ft | 287 kts | 245° |
| 2026-05-07 04:12 | 25.23164 | 55.14716 | 5718 ft | 311 kts | 241° |
| 2026-05-07 04:12 | 25.21652 | 55.11852 | 6013 ft | 338 kts | 240° |
| 2026-05-07 04:13 | 25.20846 | 55.10329 | 6355 ft | 344 kts | 240° |
| 2026-05-07 04:13 | 25.19674 | 55.07992 | 6868 ft | 352 kts | 245° |
| 2026-05-07 04:13 | 25.18722 | 55.05478 | 7505 ft | 356 kts | 250° |
| 2026-05-07 04:13 | 25.17835 | 55.02907 | 8151 ft | 361 kts | 249° |
| 2026-05-07 04:14 | 25.16906 | 55.00304 | 8713 ft | 368 kts | 249° |
| 2026-05-07 04:14 | 25.15929 | 54.97659 | 9265 ft | 373 kts | 248° |
| 2026-05-07 04:14 | 25.14601 | 54.95194 | 9595 ft | 383 kts | 227° |
| 2026-05-07 04:14 | 25.12437 | 54.93468 | 10123 ft | 387 kts | 203° |
| 2026-05-07 04:15 | 25.09856 | 54.92672 | 10736 ft | 386 kts | 184° |
| 2026-05-07 04:15 | 25.07209 | 54.92626 | 11357 ft | 386 kts | 176° |
| 2026-05-07 04:15 | 25.04514 | 54.92681 | 11969 ft | 390 kts | 177° |
| 2026-05-07 04:15 | 25.01787 | 54.92721 | 12600 ft | 393 kts | 175° |
| 2026-05-07 04:16 | 24.99045 | 54.92878 | 13251 ft | 395 kts | 173° |
| 2026-05-07 04:16 | 24.96287 | 54.93102 | 13885 ft | 398 kts | 172° |
| 2026-05-07 04:16 | 24.93515 | 54.93319 | 14480 ft | 401 kts | 173° |
| 2026-05-07 04:16 | 24.90722 | 54.93516 | 15093 ft | 403 kts | 174° |
| 2026-05-07 04:17 | 24.87919 | 54.93673 | 15675 ft | 402 kts | 179° |
| 2026-05-07 04:17 | 24.85133 | 54.93140 | 16048 ft | 414 kts | 200° |
| 2026-05-07 04:17 | 24.82603 | 54.91627 | 16560 ft | 414 kts | 210° |
| 2026-05-07 04:17 | 24.80096 | 54.90032 | 17094 ft | 418 kts | 208° |
| 2026-05-07 04:18 | 24.77539 | 54.88493 | 17757 ft | 419 kts | 207° |
| 2026-05-07 04:18 | 24.74971 | 54.86971 | 18417 ft | 419 kts | 207° |
| 2026-05-07 04:18 | 24.72402 | 54.85448 | 18966 ft | 421 kts | 208° |
| 2026-05-07 04:18 | 24.69813 | 54.83907 | 19454 ft | 424 kts | 208° |
| 2026-05-07 04:19 | 24.67221 | 54.82338 | 19871 ft | 428 kts | 209° |
| 2026-05-07 04:19 | 24.64628 | 54.80691 | 19844 ft | 431 kts | 210° |
| 2026-05-07 04:19 | 24.62058 | 54.79026 | 19851 ft | 428 kts | 210° |
| 2026-05-07 04:19 | 24.59492 | 54.77366 | 19853 ft | 426 kts | 210° |
| 2026-05-07 04:20 | 24.56934 | 54.75725 | 19859 ft | 427 kts | 210° |
| 2026-05-07 04:20 | 24.54359 | 54.74083 | 19859 ft | 428 kts | 210° |
| 2026-05-07 04:20 | 24.51784 | 54.72432 | 19862 ft | 429 kts | 210° |
| 2026-05-07 04:21 | 24.46634 | 54.69076 | 19862 ft | 431 kts | 210° |
| 2026-05-07 04:21 | 24.44057 | 54.67398 | 19860 ft | 431 kts | 210° |
| 2026-05-07 04:21 | 24.41463 | 54.65731 | 19856 ft | 431 kts | 210° |
| 2026-05-07 04:21 | 24.38862 | 54.64087 | 19856 ft | 431 kts | 210° |
| 2026-05-07 04:22 | 24.36263 | 54.62449 | 19857 ft | 431 kts | 210° |
| 2026-05-07 04:22 | 24.33674 | 54.60813 | 19856 ft | 430 kts | 210° |
| 2026-05-07 04:22 | 24.31081 | 54.59172 | 19855 ft | 429 kts | 210° |
| 2026-05-07 04:22 | 24.28502 | 54.57528 | 19855 ft | 429 kts | 211° |
| 2026-05-07 04:23 | 24.26101 | 54.55659 | 19848 ft | 429 kts | 220° |
| 2026-05-07 04:23 | 24.24000 | 54.53337 | 19852 ft | 429 kts | 229° |
| 2026-05-07 04:23 | 24.22197 | 54.50731 | 19867 ft | 430 kts | 237° |
| 2026-05-07 04:23 | 24.20680 | 54.47856 | 19855 ft | 430 kts | 240° |
| 2026-05-07 04:24 | 24.19256 | 54.45027 | 19855 ft | 431 kts | 240° |
| 2026-05-07 04:24 | 24.17806 | 54.42148 | 19860 ft | 432 kts | 240° |
| 2026-05-07 04:24 | 24.16349 | 54.39272 | 19861 ft | 433 kts | 240° |
| 2026-05-07 04:24 | 24.14876 | 54.36386 | 19860 ft | 434 kts | 240° |
| 2026-05-07 04:25 | 24.13493 | 54.33691 | 19855 ft | 431 kts | 240° |
| 2026-05-07 04:25 | 24.12036 | 54.30860 | 19947 ft | 428 kts | 240° |
| 2026-05-07 04:25 | 24.10552 | 54.27984 | 20237 ft | 437 kts | 240° |
| 2026-05-07 04:25 | 24.09057 | 54.25087 | 20787 ft | 438 kts | 240° |
| 2026-05-07 04:26 | 24.07559 | 54.22188 | 21411 ft | 437 kts | 240° |
| 2026-05-07 04:26 | 24.06063 | 54.19294 | 22005 ft | 438 kts | 240° |
| 2026-05-07 04:26 | 24.04558 | 54.16382 | 22530 ft | 441 kts | 240° |
| 2026-05-07 04:26 | 24.03042 | 54.13452 | 23047 ft | 444 kts | 240° |
| 2026-05-07 04:27 | 24.01517 | 54.10504 | 23514 ft | 446 kts | 240° |
| 2026-05-07 04:27 | 23.99985 | 54.07545 | 23942 ft | 448 kts | 240° |
| 2026-05-07 04:27 | 23.98444 | 54.04585 | 24399 ft | 449 kts | 240° |
| 2026-05-07 04:27 | 23.96886 | 54.01625 | 24841 ft | 450 kts | 240° |
| 2026-05-07 04:28 | 23.95316 | 53.98655 | 25297 ft | 451 kts | 240° |
| 2026-05-07 04:28 | 23.93743 | 53.95681 | 25731 ft | 453 kts | 240° |
| 2026-05-07 04:28 | 23.92168 | 53.92703 | 26186 ft | 453 kts | 240° |
| 2026-05-07 04:28 | 23.90585 | 53.89707 | 26637 ft | 454 kts | 240° |
| 2026-05-07 04:29 | 23.89003 | 53.86715 | 27057 ft | 456 kts | 240° |
| 2026-05-07 04:29 | 23.87414 | 53.83709 | 27473 ft | 458 kts | 240° |
| 2026-05-07 04:29 | 23.85815 | 53.80685 | 27874 ft | 460 kts | 240° |
| 2026-05-07 04:29 | 23.84211 | 53.77654 | 28270 ft | 462 kts | 240° |
| 2026-05-07 04:30 | 23.82600 | 53.74611 | 28686 ft | 463 kts | 240° |
| 2026-05-07 04:30 | 23.80984 | 53.71559 | 29059 ft | 465 kts | 240° |
| 2026-05-07 04:30 | 23.79361 | 53.68498 | 29441 ft | 466 kts | 240° |
| 2026-05-07 04:30 | 23.77735 | 53.65433 | 29828 ft | 467 kts | 240° |
| 2026-05-07 04:31 | 23.76103 | 53.62359 | 30156 ft | 469 kts | 240° |
| 2026-05-07 04:31 | 23.74468 | 53.59278 | 30481 ft | 469 kts | 240° |
| 2026-05-07 04:31 | 23.72829 | 53.56193 | 30815 ft | 469 kts | 240° |
| 2026-05-07 04:31 | 23.71195 | 53.53122 | 31210 ft | 468 kts | 240° |
| 2026-05-07 04:32 | 23.69564 | 53.50055 | 31642 ft | 466 kts | 240° |
| 2026-05-07 04:32 | 23.67946 | 53.47002 | 32058 ft | 464 kts | 240° |
| 2026-05-07 04:32 | 23.66337 | 53.43965 | 32449 ft | 463 kts | 240° |
| 2026-05-07 04:32 | 23.64727 | 53.40926 | 32827 ft | 462 kts | 240° |
| 2026-05-07 04:33 | 23.63123 | 53.37899 | 33204 ft | 461 kts | 240° |
| 2026-05-07 04:33 | 23.61519 | 53.34875 | 33589 ft | 459 kts | 240° |
| 2026-05-07 04:33 | 23.59919 | 53.31861 | 33850 ft | 461 kts | 240° |
| 2026-05-07 04:33 | 23.58323 | 53.28857 | 33882 ft | 466 kts | 240° |
| 2026-05-07 04:34 | 23.55033 | 53.22669 | 33897 ft | 477 kts | 240° |
| 2026-05-07 04:34 | 23.51678 | 53.16368 | 33898 ft | 483 kts | 240° |
| 2026-05-07 04:35 | 23.48298 | 53.10029 | 33890 ft | 484 kts | 240° |
| 2026-05-07 04:35 | 23.44918 | 53.03695 | 33889 ft | 483 kts | 240° |
| 2026-05-07 04:36 | 23.41546 | 52.97385 | 33889 ft | 482 kts | 240° |
| 2026-05-07 04:36 | 23.38228 | 52.91068 | 33888 ft | 480 kts | 241° |
| 2026-05-07 04:37 | 23.34992 | 52.84722 | 33887 ft | 479 kts | 241° |
| 2026-05-07 04:37 | 23.31755 | 52.78388 | 33885 ft | 479 kts | 241° |
| 2026-05-07 04:38 | 23.28507 | 52.72072 | 33885 ft | 478 kts | 241° |
| 2026-05-07 04:38 | 23.25260 | 52.65773 | 33884 ft | 479 kts | 241° |
| 2026-05-07 04:39 | 23.22004 | 52.59458 | 33885 ft | 479 kts | 241° |
| 2026-05-07 04:39 | 23.18777 | 52.53129 | 33883 ft | 479 kts | 244° |
| 2026-05-07 04:40 | 23.16309 | 52.46409 | 33889 ft | 479 kts | 252° |
| 2026-05-07 04:40 | 23.14210 | 52.39530 | 33885 ft | 480 kts | 251° |
| 2026-05-07 04:41 | 23.12033 | 52.32682 | 33886 ft | 480 kts | 250° |
| 2026-05-07 04:41 | 23.09839 | 52.25824 | 33888 ft | 480 kts | 250° |
| 2026-05-07 04:42 | 23.07650 | 52.18970 | 33885 ft | 480 kts | 251° |
| 2026-05-07 04:42 | 23.05460 | 52.12111 | 33881 ft | 480 kts | 251° |
| 2026-05-07 04:43 | 23.03271 | 52.05262 | 33881 ft | 480 kts | 250° |
| 2026-05-07 04:43 | 23.01078 | 51.98418 | 33883 ft | 480 kts | 251° |
| 2026-05-07 04:44 | 22.98885 | 51.91581 | 33886 ft | 480 kts | 250° |
| 2026-05-07 04:44 | 22.96690 | 51.84751 | 33884 ft | 479 kts | 250° |
| 2026-05-07 04:45 | 22.94491 | 51.77919 | 33888 ft | 479 kts | 250° |
| 2026-05-07 04:45 | 22.92290 | 51.71092 | 33885 ft | 479 kts | 250° |
| 2026-05-07 04:46 | 22.90087 | 51.64270 | 33886 ft | 480 kts | 250° |
| 2026-05-07 04:46 | 22.87893 | 51.57486 | 33884 ft | 480 kts | 250° |
| 2026-05-07 04:47 | 22.85727 | 51.50648 | 33889 ft | 480 kts | 254° |
| 2026-05-07 04:47 | 22.84457 | 51.43554 | 33888 ft | 480 kts | 262° |
| 2026-05-07 04:48 | 22.84151 | 51.36326 | 33885 ft | 481 kts | 269° |
| 2026-05-07 04:48 | 22.84145 | 51.29078 | 33885 ft | 481 kts | 269° |
| 2026-05-07 04:49 | 22.84131 | 51.21821 | 33890 ft | 481 kts | 269° |
| 2026-05-07 04:49 | 22.84090 | 51.14572 | 33894 ft | 481 kts | 269° |
| 2026-05-07 04:50 | 22.84034 | 51.07320 | 33893 ft | 481 kts | 269° |
| 2026-05-07 04:50 | 22.83973 | 51.00063 | 33893 ft | 481 kts | 269° |
| 2026-05-07 04:51 | 22.83912 | 50.93048 | 33896 ft | 481 kts | 268° |
| 2026-05-07 04:51 | 22.83846 | 50.85792 | 33899 ft | 481 kts | 268° |
| 2026-05-07 04:52 | 22.83777 | 50.78544 | 33895 ft | 481 kts | 268° |
| 2026-05-07 04:52 | 22.83705 | 50.71300 | 33898 ft | 480 kts | 268° |
| 2026-05-07 04:53 | 22.83629 | 50.64060 | 33904 ft | 480 kts | 268° |
| 2026-05-07 04:53 | 22.83551 | 50.56833 | 33901 ft | 480 kts | 268° |
| 2026-05-07 04:54 | 22.83469 | 50.49602 | 33902 ft | 479 kts | 268° |
| 2026-05-07 04:54 | 22.83384 | 50.42381 | 33901 ft | 479 kts | 268° |
| 2026-05-07 04:55 | 22.83296 | 50.35166 | 33909 ft | 479 kts | 268° |
| 2026-05-07 04:55 | 22.83205 | 50.27950 | 33905 ft | 479 kts | 268° |
| 2026-05-07 04:56 | 22.83110 | 50.20785 | 33899 ft | 478 kts | 268° |
| 2026-05-07 04:56 | 22.83013 | 50.13579 | 33900 ft | 478 kts | 268° |
| 2026-05-07 04:57 | 22.82912 | 50.06372 | 33905 ft | 478 kts | 268° |
| 2026-05-07 04:57 | 22.82808 | 49.99172 | 33904 ft | 478 kts | 268° |
| 2026-05-07 04:58 | 22.82718 | 49.93124 | 33905 ft | 478 kts | 268° |
| 2026-05-07 04:58 | 22.82607 | 49.85916 | 33902 ft | 478 kts | 268° |
| 2026-05-07 04:59 | 22.82494 | 49.78726 | 33905 ft | 478 kts | 268° |
| 2026-05-07 04:59 | 22.82378 | 49.71531 | 33902 ft | 478 kts | 268° |
| 2026-05-07 05:00 | 22.82259 | 49.64383 | 33906 ft | 477 kts | 268° |
| 2026-05-07 05:00 | 22.82136 | 49.57185 | 33907 ft | 477 kts | 268° |
| 2026-05-07 05:01 | 22.82010 | 49.49995 | 33921 ft | 477 kts | 268° |
| 2026-05-07 05:01 | 22.81880 | 49.42806 | 33911 ft | 476 kts | 268° |
| 2026-05-07 05:02 | 22.81749 | 49.35651 | 33899 ft | 474 kts | 268° |
| 2026-05-07 05:02 | 22.81614 | 49.28517 | 33901 ft | 473 kts | 268° |
| 2026-05-07 05:03 | 22.81476 | 49.21397 | 33905 ft | 472 kts | 268° |
| 2026-05-07 05:03 | 22.81335 | 49.14285 | 33906 ft | 472 kts | 268° |
| 2026-05-07 05:04 | 22.81192 | 49.07174 | 33908 ft | 472 kts | 268° |
| 2026-05-07 05:04 | 22.81045 | 49.00067 | 33908 ft | 472 kts | 268° |
| 2026-05-07 05:05 | 22.80895 | 48.92953 | 33907 ft | 472 kts | 268° |
| 2026-05-07 05:05 | 22.80741 | 48.85845 | 33909 ft | 472 kts | 268° |
| 2026-05-07 05:06 | 22.80585 | 48.78747 | 33912 ft | 472 kts | 268° |
| 2026-05-07 05:06 | 22.80426 | 48.71634 | 33910 ft | 472 kts | 268° |
| 2026-05-07 05:07 | 22.80263 | 48.64517 | 33924 ft | 472 kts | 267° |
| 2026-05-07 05:07 | 22.80098 | 48.57416 | 33918 ft | 471 kts | 267° |
| 2026-05-07 05:08 | 22.79929 | 48.50332 | 33908 ft | 470 kts | 267° |
| 2026-05-07 05:08 | 22.79758 | 48.43262 | 33920 ft | 469 kts | 267° |
| 2026-05-07 05:09 | 22.79585 | 48.36216 | 33916 ft | 468 kts | 267° |
| 2026-05-07 05:09 | 22.79408 | 48.29173 | 33920 ft | 467 kts | 267° |
| 2026-05-07 05:10 | 22.79228 | 48.22142 | 33923 ft | 467 kts | 267° |
| 2026-05-07 05:10 | 22.79046 | 48.15113 | 33922 ft | 467 kts | 267° |
| 2026-05-07 05:11 | 22.78860 | 48.08079 | 33920 ft | 467 kts | 267° |
| 2026-05-07 05:11 | 22.78672 | 48.01079 | 33930 ft | 468 kts | 267° |
| 2026-05-07 05:12 | 22.78481 | 47.94092 | 33932 ft | 468 kts | 266° |
| 2026-05-07 05:12 | 22.78286 | 47.87045 | 33932 ft | 469 kts | 266° |
| 2026-05-07 05:13 | 22.78087 | 47.79986 | 33939 ft | 468 kts | 266° |
| 2026-05-07 05:13 | 22.77886 | 47.72937 | 33930 ft | 467 kts | 266° |
| 2026-05-07 05:14 | 22.77682 | 47.65916 | 33932 ft | 466 kts | 266° |
| 2026-05-07 05:14 | 22.77476 | 47.58896 | 33936 ft | 465 kts | 266° |
| 2026-05-07 05:15 | 22.77266 | 47.51892 | 33946 ft | 465 kts | 266° |
| 2026-05-07 05:15 | 22.77054 | 47.44902 | 33946 ft | 464 kts | 266° |
| 2026-05-07 05:16 | 22.76839 | 47.37912 | 33948 ft | 464 kts | 266° |
| 2026-05-07 05:16 | 22.76621 | 47.30926 | 33954 ft | 464 kts | 266° |
| 2026-05-07 05:17 | 22.76400 | 47.23930 | 33950 ft | 465 kts | 266° |
| 2026-05-07 05:17 | 22.76253 | 47.16927 | 33951 ft | 466 kts | 269° |
| 2026-05-07 05:18 | 22.76783 | 47.09913 | 33960 ft | 467 kts | 272° |
| 2026-05-07 05:18 | 22.77371 | 47.02946 | 33975 ft | 467 kts | 272° |
| 2026-05-07 05:19 | 22.77938 | 46.95943 | 33971 ft | 466 kts | 272° |
| 2026-05-07 05:19 | 22.78484 | 46.89016 | 33958 ft | 464 kts | 272° |
| 2026-05-07 05:20 | 22.79029 | 46.82057 | 33975 ft | 463 kts | 272° |
| 2026-05-07 05:20 | 22.79570 | 46.75108 | 33964 ft | 462 kts | 272° |
| 2026-05-07 05:21 | 22.80376 | 46.64700 | 33971 ft | 462 kts | 271° |
| 2026-05-07 05:22 | 22.80910 | 46.57759 | 33969 ft | 462 kts | 271° |
| 2026-05-07 05:22 | 22.81442 | 46.50805 | 33976 ft | 463 kts | 271° |
| 2026-05-07 05:23 | 22.81970 | 46.43865 | 33982 ft | 462 kts | 271° |
| 2026-05-07 05:23 | 22.82495 | 46.36921 | 33981 ft | 461 kts | 271° |
| 2026-05-07 05:24 | 22.83007 | 46.30004 | 33980 ft | 460 kts | 271° |
| 2026-05-07 05:24 | 22.83513 | 46.23098 | 33972 ft | 459 kts | 271° |
| 2026-05-07 05:25 | 22.84017 | 46.16200 | 33974 ft | 459 kts | 271° |
| 2026-05-07 05:25 | 22.84519 | 46.09301 | 33982 ft | 460 kts | 271° |
| 2026-05-07 05:26 | 22.85019 | 46.02375 | 33973 ft | 461 kts | 271° |
| 2026-05-07 05:26 | 22.85517 | 45.95442 | 33972 ft | 462 kts | 271° |
| 2026-05-07 05:27 | 22.86011 | 45.88531 | 33979 ft | 464 kts | 270° |
| 2026-05-07 05:27 | 22.86506 | 45.81543 | 33972 ft | 465 kts | 270° |
| 2026-05-07 05:28 | 22.87000 | 45.74543 | 33972 ft | 466 kts | 270° |
| 2026-05-07 05:28 | 22.87492 | 45.67533 | 33976 ft | 466 kts | 270° |
| 2026-05-07 05:29 | 22.87980 | 45.60525 | 33971 ft | 466 kts | 270° |
| 2026-05-07 05:29 | 22.88465 | 45.53520 | 33977 ft | 466 kts | 270° |
| 2026-05-07 05:30 | 22.88947 | 45.46518 | 33977 ft | 465 kts | 270° |
| 2026-05-07 05:30 | 22.89424 | 45.39528 | 33984 ft | 464 kts | 270° |
| 2026-05-07 05:31 | 22.89898 | 45.32550 | 33987 ft | 462 kts | 270° |
| 2026-05-07 05:31 | 22.90366 | 45.25624 | 33976 ft | 459 kts | 270° |
| 2026-05-07 05:32 | 22.90827 | 45.18736 | 33979 ft | 456 kts | 270° |
| 2026-05-07 05:32 | 22.91282 | 45.11895 | 33983 ft | 454 kts | 270° |
| 2026-05-07 05:33 | 22.91735 | 45.05060 | 33980 ft | 454 kts | 270° |
| 2026-05-07 05:33 | 22.92182 | 44.98258 | 33983 ft | 456 kts | 270° |
| 2026-05-07 05:34 | 22.92632 | 44.91394 | 33985 ft | 457 kts | 270° |
| 2026-05-07 05:34 | 22.93080 | 44.84507 | 33977 ft | 458 kts | 270° |
| 2026-05-07 05:35 | 22.93527 | 44.77613 | 33980 ft | 458 kts | 270° |
| 2026-05-07 05:35 | 22.93993 | 44.70717 | 33980 ft | 459 kts | 272° |
| 2026-05-07 05:36 | 22.95192 | 44.63870 | 33982 ft | 464 kts | 280° |
| 2026-05-07 05:36 | 22.97212 | 44.57192 | 33984 ft | 467 kts | 284° |
| 2026-05-07 05:37 | 22.99309 | 44.50527 | 33979 ft | 466 kts | 283° |
| 2026-05-07 05:37 | 23.01378 | 44.43876 | 33977 ft | 465 kts | 283° |
| 2026-05-07 05:38 | 23.03428 | 44.37228 | 33984 ft | 464 kts | 283° |
| 2026-05-07 05:38 | 23.05467 | 44.30588 | 33976 ft | 463 kts | 283° |
| 2026-05-07 05:39 | 23.07505 | 44.23945 | 33978 ft | 463 kts | 283° |
| 2026-05-07 05:39 | 23.09537 | 44.17314 | 33987 ft | 463 kts | 283° |
| 2026-05-07 05:40 | 23.11564 | 44.10688 | 33984 ft | 462 kts | 283° |
| 2026-05-07 05:40 | 23.13587 | 44.04063 | 33975 ft | 462 kts | 283° |
| 2026-05-07 05:41 | 23.15609 | 43.97430 | 33988 ft | 462 kts | 283° |
| 2026-05-07 05:41 | 23.17615 | 43.90840 | 33987 ft | 462 kts | 283° |
| 2026-05-07 05:42 | 23.19627 | 43.84219 | 33988 ft | 462 kts | 283° |
| 2026-05-07 05:42 | 23.21637 | 43.77592 | 33988 ft | 461 kts | 283° |
| 2026-05-07 05:43 | 23.23643 | 43.70968 | 34001 ft | 461 kts | 283° |
| 2026-05-07 05:43 | 23.25319 | 43.65423 | 33997 ft | 461 kts | 283° |
| 2026-05-07 05:44 | 23.27322 | 43.58790 | 34009 ft | 461 kts | 282° |
| 2026-05-07 05:44 | 23.29317 | 43.52164 | 34004 ft | 461 kts | 282° |
| 2026-05-07 05:45 | 23.31308 | 43.45535 | 34009 ft | 461 kts | 282° |
| 2026-05-07 05:45 | 23.33295 | 43.38906 | 34022 ft | 461 kts | 282° |
| 2026-05-07 05:46 | 23.35264 | 43.32326 | 34014 ft | 460 kts | 282° |
| 2026-05-07 05:46 | 23.37246 | 43.25694 | 34025 ft | 460 kts | 282° |
| 2026-05-07 05:47 | 23.39217 | 43.19084 | 34033 ft | 459 kts | 282° |
| 2026-05-07 05:47 | 23.41184 | 43.12475 | 34025 ft | 459 kts | 282° |
| 2026-05-07 05:48 | 23.43144 | 43.05852 | 34033 ft | 458 kts | 282° |
| 2026-05-07 05:48 | 23.45091 | 42.99247 | 34051 ft | 458 kts | 282° |
| 2026-05-07 05:49 | 23.47039 | 42.92635 | 34029 ft | 458 kts | 282° |
| 2026-05-07 05:49 | 23.48980 | 42.86033 | 34041 ft | 458 kts | 282° |
| 2026-05-07 05:50 | 23.50922 | 42.79422 | 34039 ft | 458 kts | 282° |
| 2026-05-07 05:50 | 23.52858 | 42.72827 | 34036 ft | 457 kts | 282° |
| 2026-05-07 05:51 | 23.54809 | 42.66224 | 34040 ft | 457 kts | 282° |
| 2026-05-07 05:51 | 23.56758 | 42.59625 | 34041 ft | 458 kts | 282° |
| 2026-05-07 05:52 | 23.58706 | 42.53006 | 34037 ft | 458 kts | 282° |
| 2026-05-07 05:52 | 23.60648 | 42.46397 | 34047 ft | 458 kts | 282° |
| 2026-05-07 05:53 | 23.62589 | 42.39777 | 34050 ft | 459 kts | 282° |
| 2026-05-07 05:53 | 23.64528 | 42.33153 | 34042 ft | 459 kts | 282° |
| 2026-05-07 05:54 | 23.66467 | 42.26511 | 34032 ft | 460 kts | 282° |
| 2026-05-07 05:54 | 23.68371 | 42.19906 | 34039 ft | 460 kts | 281° |
| 2026-05-07 05:55 | 23.70297 | 42.13199 | 34042 ft | 461 kts | 281° |
| 2026-05-07 05:55 | 23.72215 | 42.06521 | 34045 ft | 461 kts | 281° |
| 2026-05-07 05:56 | 23.74132 | 41.99839 | 34048 ft | 461 kts | 281° |
| 2026-05-07 05:56 | 23.76063 | 41.93164 | 34056 ft | 462 kts | 281° |
| 2026-05-07 05:57 | 23.77998 | 41.86523 | 34052 ft | 462 kts | 281° |
| 2026-05-07 05:57 | 23.79936 | 41.79846 | 34050 ft | 461 kts | 281° |
| 2026-05-07 05:58 | 23.81866 | 41.73163 | 34056 ft | 461 kts | 281° |
| 2026-05-07 05:58 | 23.83782 | 41.66486 | 34054 ft | 461 kts | 281° |
| 2026-05-07 05:59 | 23.85695 | 41.59817 | 34044 ft | 455 kts | 281° |
| 2026-05-07 05:59 | 23.86630 | 41.56568 | 34039 ft | 444 kts | 281° |
| 2026-05-07 05:59 | 23.87546 | 41.53371 | 34048 ft | 439 kts | 281° |
| 2026-05-07 06:00 | 23.89355 | 41.47014 | 34050 ft | 438 kts | 281° |
| 2026-05-07 06:00 | 23.91163 | 41.40655 | 34058 ft | 438 kts | 281° |
| 2026-05-07 06:01 | 23.92972 | 41.34296 | 34070 ft | 438 kts | 281° |
| 2026-05-07 06:01 | 23.94778 | 41.27930 | 34058 ft | 439 kts | 281° |
| 2026-05-07 06:02 | 23.96584 | 41.21552 | 34047 ft | 439 kts | 281° |
| 2026-05-07 06:02 | 23.98378 | 41.15204 | 34047 ft | 439 kts | 281° |
| 2026-05-07 06:03 | 24.00194 | 41.08772 | 34033 ft | 440 kts | 281° |
| 2026-05-07 06:03 | 24.01993 | 41.02386 | 34035 ft | 440 kts | 281° |
| 2026-05-07 06:04 | 24.03793 | 40.95985 | 34028 ft | 440 kts | 281° |
| 2026-05-07 06:04 | 24.05590 | 40.89580 | 34043 ft | 440 kts | 281° |
| 2026-05-07 06:05 | 24.07385 | 40.83164 | 34031 ft | 441 kts | 281° |
| 2026-05-07 06:05 | 24.09177 | 40.76751 | 34030 ft | 441 kts | 281° |
| 2026-05-07 06:06 | 24.10953 | 40.70382 | 34021 ft | 441 kts | 281° |
| 2026-05-07 06:06 | 24.12740 | 40.63965 | 34020 ft | 441 kts | 280° |
| 2026-05-07 06:07 | 24.14523 | 40.57547 | 34021 ft | 441 kts | 280° |
| 2026-05-07 06:07 | 24.16453 | 40.51164 | 34017 ft | 445 kts | 285° |
| 2026-05-07 06:08 | 24.19240 | 40.45042 | 34023 ft | 451 kts | 290° |
| 2026-05-07 06:08 | 24.22184 | 40.38974 | 34013 ft | 451 kts | 290° |
| 2026-05-07 06:09 | 24.25101 | 40.32902 | 34008 ft | 450 kts | 290° |
| 2026-05-07 06:09 | 24.28005 | 40.26821 | 34008 ft | 450 kts | 290° |
| 2026-05-07 06:10 | 24.30802 | 40.20949 | 34011 ft | 450 kts | 290° |
| 2026-05-07 06:10 | 24.33656 | 40.14953 | 33996 ft | 449 kts | 290° |
| 2026-05-07 06:11 | 24.36546 | 40.08875 | 33996 ft | 449 kts | 290° |
| 2026-05-07 06:11 | 24.39425 | 40.02811 | 34028 ft | 448 kts | 290° |
| 2026-05-07 06:12 | 24.42303 | 39.96740 | 34004 ft | 448 kts | 290° |
| 2026-05-07 06:12 | 24.45161 | 39.90705 | 34010 ft | 448 kts | 290° |
| 2026-05-07 06:13 | 24.48030 | 39.84638 | 34014 ft | 448 kts | 290° |
| 2026-05-07 06:13 | 24.50896 | 39.78568 | 34036 ft | 448 kts | 289° |
| 2026-05-07 06:14 | 24.53768 | 39.72483 | 34020 ft | 449 kts | 290° |
| 2026-05-07 06:14 | 24.57135 | 39.66639 | 34018 ft | 457 kts | 297° |
| 2026-05-07 06:15 | 24.60869 | 39.60980 | 34017 ft | 458 kts | 297° |
| 2026-05-07 06:15 | 24.64600 | 39.55307 | 33990 ft | 458 kts | 297° |
| 2026-05-07 06:16 | 24.68317 | 39.49610 | 33975 ft | 458 kts | 297° |
| 2026-05-07 06:16 | 24.72023 | 39.43909 | 33979 ft | 459 kts | 297° |
| 2026-05-07 06:17 | 24.75733 | 39.38194 | 33963 ft | 459 kts | 297° |
| 2026-05-07 06:17 | 24.79435 | 39.32479 | 33979 ft | 459 kts | 297° |
| 2026-05-07 06:18 | 24.83147 | 39.26743 | 33973 ft | 460 kts | 297° |
| 2026-05-07 06:18 | 24.86843 | 39.21032 | 33958 ft | 461 kts | 297° |
| 2026-05-07 06:19 | 24.90586 | 39.15239 | 33961 ft | 461 kts | 297° |
| 2026-05-07 06:19 | 24.94303 | 39.09478 | 33965 ft | 462 kts | 297° |
| 2026-05-07 06:20 | 24.97897 | 39.03902 | 33966 ft | 462 kts | 297° |
| 2026-05-07 06:20 | 25.01638 | 38.98088 | 33955 ft | 462 kts | 297° |
| 2026-05-07 06:21 | 25.05332 | 38.92345 | 33953 ft | 461 kts | 297° |
| 2026-05-07 06:21 | 25.09037 | 38.86576 | 33961 ft | 461 kts | 297° |
| 2026-05-07 06:22 | 25.12738 | 38.80806 | 33938 ft | 460 kts | 297° |
| 2026-05-07 06:22 | 25.18272 | 38.72163 | 33954 ft | 460 kts | 297° |
| 2026-05-07 06:23 | 25.21960 | 38.66395 | 33942 ft | 460 kts | 297° |
| 2026-05-07 06:23 | 25.25646 | 38.60624 | 33942 ft | 460 kts | 297° |
| 2026-05-07 06:24 | 25.29326 | 38.54855 | 34146 ft | 459 kts | 297° |
| 2026-05-07 06:24 | 25.33007 | 38.49076 | 34377 ft | 460 kts | 297° |
| 2026-05-07 06:25 | 25.36684 | 38.43297 | 34578 ft | 459 kts | 297° |
| 2026-05-07 06:25 | 25.38523 | 38.40405 | 34716 ft | 459 kts | 296° |
| 2026-05-07 06:25 | 25.40355 | 38.37522 | 34808 ft | 459 kts | 296° |
| 2026-05-07 06:26 | 25.42189 | 38.34634 | 34913 ft | 458 kts | 296° |
| 2026-05-07 06:26 | 25.44020 | 38.31750 | 35048 ft | 458 kts | 296° |
| 2026-05-07 06:26 | 25.45848 | 38.28868 | 35152 ft | 457 kts | 296° |
| 2026-05-07 06:26 | 25.47673 | 38.25990 | 35287 ft | 456 kts | 296° |
| 2026-05-07 06:27 | 25.49491 | 38.23120 | 35408 ft | 456 kts | 296° |
| 2026-05-07 06:27 | 25.51311 | 38.20245 | 35522 ft | 455 kts | 296° |
| 2026-05-07 06:27 | 25.54320 | 38.15488 | 35746 ft | 453 kts | 296° |
| 2026-05-07 06:28 | 25.57921 | 38.09791 | 35868 ft | 450 kts | 296° |
| 2026-05-07 06:28 | 25.61500 | 38.04116 | 35918 ft | 450 kts | 296° |
| 2026-05-07 06:29 | 25.65082 | 37.98430 | 35923 ft | 450 kts | 296° |
| 2026-05-07 06:29 | 25.68550 | 37.92919 | 35941 ft | 450 kts | 296° |
| 2026-05-07 06:30 | 25.72135 | 37.87218 | 35937 ft | 451 kts | 295° |
| 2026-05-07 06:30 | 25.75721 | 37.81509 | 35942 ft | 451 kts | 296° |
| 2026-05-07 06:31 | 25.79304 | 37.75797 | 35949 ft | 451 kts | 295° |
| 2026-05-07 06:31 | 25.82881 | 37.70086 | 35973 ft | 451 kts | 295° |
| 2026-05-07 06:32 | 25.86458 | 37.64370 | 35939 ft | 451 kts | 295° |
| 2026-05-07 06:32 | 25.90008 | 37.58691 | 35968 ft | 450 kts | 295° |
| 2026-05-07 06:33 | 25.93572 | 37.52979 | 35960 ft | 450 kts | 295° |
| 2026-05-07 06:33 | 25.97141 | 37.47250 | 35975 ft | 451 kts | 295° |
| 2026-05-07 06:34 | 26.00718 | 37.41507 | 35954 ft | 451 kts | 295° |
| 2026-05-07 06:34 | 26.04282 | 37.35777 | 35946 ft | 451 kts | 295° |
| 2026-05-07 06:35 | 26.07846 | 37.30039 | 35943 ft | 450 kts | 295° |
| 2026-05-07 06:35 | 26.11403 | 37.24306 | 35940 ft | 449 kts | 295° |
| 2026-05-07 06:36 | 26.14949 | 37.18582 | 35940 ft | 449 kts | 295° |
| 2026-05-07 06:36 | 26.18493 | 37.12854 | 35929 ft | 449 kts | 295° |
| 2026-05-07 06:37 | 26.22035 | 37.07121 | 35933 ft | 449 kts | 295° |
| 2026-05-07 06:37 | 26.25569 | 37.01396 | 35923 ft | 449 kts | 295° |
| 2026-05-07 06:38 | 26.29108 | 36.95656 | 35934 ft | 449 kts | 295° |
| 2026-05-07 06:38 | 26.32642 | 36.89914 | 35928 ft | 449 kts | 295° |
| 2026-05-07 06:39 | 26.36149 | 36.84212 | 35915 ft | 449 kts | 295° |
| 2026-05-07 06:39 | 26.39674 | 36.78473 | 35920 ft | 449 kts | 295° |
| 2026-05-07 06:40 | 26.43199 | 36.72723 | 35954 ft | 449 kts | 295° |
| 2026-05-07 06:40 | 26.46526 | 36.67290 | 35932 ft | 451 kts | 295° |